sensor_id;sensor_type;location;lat;lon;timestamp;pressure;altitude;pressure_sealevel;temperature;humidity
78590;BME280;67888;50.228;7.828;2024-03-02T00:01:16;97880.59;;;4.93;100.00
78590;BME280;67888;50.228;7.828;2024-03-02T00:06:20;97882.06;;;5.40;100.00
78590;BME280;67888;50.228;7.828;2024-03-02T00:11:20;97888.06;;;5.35;100.00
78590;BME280;67888;50.228;7.828;2024-03-02T00:16:21;97881.34;;;5.14;100.00
78590;BME280;67888;50.228;7.828;2024-03-02T00:21:26;97888.81;;;5.56;100.00
78590;BME280;67888;50.228;7.828;2024-03-02T00:26:29;97893.53;;;5.39;100.00
78590;BME280;67888;50.228;7.828;2024-03-02T00:31:29;97889.13;;;6.09;100.00
78590;BME280;67888;50.228;7.828;2024-03-02T00:36:30;97883.34;;;6.17;100.00
78590;BME280;67888;50.228;7.828;2024-03-02T00:41:31;97879.09;;;6.31;100.00
78590;BME280;67888;50.228;7.828;2024-03-02T00:46:36;97876.38;;;6.46;100.00
78590;BME280;67888;50.228;7.828;2024-03-02T00:51:37;97874.22;;;6.20;100.00
78590;BME280;67888;50.228;7.828;2024-03-02T00:56:37;97860.06;;;6.26;100.00
78590;BME280;67888;50.228;7.828;2024-03-02T01:01:38;97858.44;;;5.81;100.00
78590;BME280;67888;50.228;7.828;2024-03-02T01:06:38;97854.84;;;5.66;100.00
78590;BME280;67888;50.228;7.828;2024-03-02T01:11:39;97848.72;;;6.01;100.00
78590;BME280;67888;50.228;7.828;2024-03-02T01:16:39;97850.09;;;5.79;100.00
78590;BME280;67888;50.228;7.828;2024-03-02T01:21:40;97857.28;;;5.43;100.00
78590;BME280;67888;50.228;7.828;2024-03-02T01:26:40;97855.22;;;5.29;100.00
78590;BME280;67888;50.228;7.828;2024-03-02T01:31:41;97847.09;;;5.46;100.00
78590;BME280;67888;50.228;7.828;2024-03-02T01:36:42;97836.66;;;5.46;100.00
78590;BME280;67888;50.228;7.828;2024-03-02T01:41:43;97833.25;;;5.46;100.00
78590;BME280;67888;50.228;7.828;2024-03-02T01:46:43;97833.94;;;4.92;100.00
78590;BME280;67888;50.228;7.828;2024-03-02T01:51:44;97828.19;;;4.95;100.00
78590;BME280;67888;50.228;7.828;2024-03-02T01:56:44;97829.84;;;6.09;100.00
78590;BME280;67888;50.228;7.828;2024-03-02T02:01:45;97835.13;;;5.99;100.00
78590;BME280;67888;50.228;7.828;2024-03-02T02:06:45;97826.56;;;5.94;100.00
78590;BME280;67888;50.228;7.828;2024-03-02T02:11:46;97839.16;;;5.71;100.00
78590;BME280;67888;50.228;7.828;2024-03-02T02:16:46;97834.00;;;5.61;100.00
78590;BME280;67888;50.228;7.828;2024-03-02T02:21:47;97825.16;;;5.52;100.00
78590;BME280;67888;50.228;7.828;2024-03-02T02:26:47;97812.94;;;5.37;100.00
78590;BME280;67888;50.228;7.828;2024-03-02T02:31:48;97808.56;;;5.92;100.00
78590;BME280;67888;50.228;7.828;2024-03-02T02:36:48;97803.31;;;5.38;100.00
78590;BME280;67888;50.228;7.828;2024-03-02T02:41:49;97803.56;;;5.42;100.00
78590;BME280;67888;50.228;7.828;2024-03-02T02:46:49;97800.84;;;5.67;100.00
78590;BME280;67888;50.228;7.828;2024-03-02T02:51:50;97783.59;;;6.49;100.00
78590;BME280;67888;50.228;7.828;2024-03-02T02:56:50;97778.66;;;6.76;100.00
78590;BME280;67888;50.228;7.828;2024-03-02T03:01:51;97778.75;;;6.95;100.00
78590;BME280;67888;50.228;7.828;2024-03-02T03:06:52;97778.56;;;7.10;100.00
78590;BME280;67888;50.228;7.828;2024-03-02T03:11:52;97777.19;;;6.94;100.00
78590;BME280;67888;50.228;7.828;2024-03-02T03:16:53;97776.59;;;6.73;100.00
78590;BME280;67888;50.228;7.828;2024-03-02T03:21:53;97780.47;;;7.05;100.00
78590;BME280;67888;50.228;7.828;2024-03-02T03:26:54;97769.91;;;6.86;100.00
78590;BME280;67888;50.228;7.828;2024-03-02T03:31:54;97772.56;;;6.57;100.00
78590;BME280;67888;50.228;7.828;2024-03-02T03:36:54;97768.91;;;6.58;100.00
78590;BME280;67888;50.228;7.828;2024-03-02T03:41:55;97760.31;;;6.53;100.00
78590;BME280;67888;50.228;7.828;2024-03-02T03:46:56;97772.09;;;6.50;100.00
78590;BME280;67888;50.228;7.828;2024-03-02T03:51:56;97777.97;;;5.98;100.00
78590;BME280;67888;50.228;7.828;2024-03-02T03:56:57;97789.81;;;5.80;100.00
78590;BME280;67888;50.228;7.828;2024-03-02T04:01:57;97803.22;;;5.58;100.00
78590;BME280;67888;50.228;7.828;2024-03-02T04:06:57;97797.28;;;5.43;100.00
78590;BME280;67888;50.228;7.828;2024-03-02T04:11:58;97799.44;;;5.25;100.00
78590;BME280;67888;50.228;7.828;2024-03-02T04:16:58;97790.88;;;5.10;100.00
78590;BME280;67888;50.228;7.828;2024-03-02T04:21:59;97790.09;;;5.19;100.00
78590;BME280;67888;50.228;7.828;2024-03-02T04:26:59;97792.25;;;4.77;100.00
78590;BME280;67888;50.228;7.828;2024-03-02T04:32:00;97798.00;;;4.13;100.00
78590;BME280;67888;50.228;7.828;2024-03-02T04:37:00;97807.09;;;4.20;100.00
78590;BME280;67888;50.228;7.828;2024-03-02T04:42:00;97807.63;;;4.22;100.00
78590;BME280;67888;50.228;7.828;2024-03-02T04:47:01;97820.41;;;4.44;100.00
78590;BME280;67888;50.228;7.828;2024-03-02T04:52:02;97823.00;;;4.29;100.00
78590;BME280;67888;50.228;7.828;2024-03-02T04:57:02;97825.09;;;4.37;100.00
78590;BME280;67888;50.228;7.828;2024-03-02T05:02:03;97829.75;;;4.15;100.00
78590;BME280;67888;50.228;7.828;2024-03-02T05:07:04;97838.09;;;4.22;100.00
78590;BME280;67888;50.228;7.828;2024-03-02T05:12:06;97836.97;;;3.87;100.00
78590;BME280;67888;50.228;7.828;2024-03-02T05:17:09;97837.06;;;4.38;100.00
78590;BME280;67888;50.228;7.828;2024-03-02T05:22:09;97839.94;;;4.47;100.00
78590;BME280;67888;50.228;7.828;2024-03-02T05:27:10;97842.00;;;4.90;100.00
78590;BME280;67888;50.228;7.828;2024-03-02T05:32:10;97847.44;;;5.19;100.00
78590;BME280;67888;50.228;7.828;2024-03-02T05:37:11;97849.06;;;4.54;100.00
78590;BME280;67888;50.228;7.828;2024-03-02T05:42:11;97851.91;;;4.88;100.00
78590;BME280;67888;50.228;7.828;2024-03-02T05:47:12;97844.91;;;4.68;100.00
78590;BME280;67888;50.228;7.828;2024-03-02T05:52:12;97838.63;;;4.80;100.00
78590;BME280;67888;50.228;7.828;2024-03-02T05:57:13;97839.66;;;4.84;100.00
78590;BME280;67888;50.228;7.828;2024-03-02T06:02:17;97843.06;;;4.89;100.00
78590;BME280;67888;50.228;7.828;2024-03-02T06:07:17;97853.47;;;4.59;100.00
78590;BME280;67888;50.228;7.828;2024-03-02T06:12:20;97855.03;;;4.45;100.00
78590;BME280;67888;50.228;7.828;2024-03-02T06:17:21;97862.34;;;4.43;100.00
78590;BME280;67888;50.228;7.828;2024-03-02T06:22:22;97868.31;;;4.99;100.00
78590;BME280;67888;50.228;7.828;2024-03-02T06:27:25;97875.06;;;5.25;100.00
78590;BME280;67888;50.228;7.828;2024-03-02T06:32:25;97874.94;;;5.61;100.00
78590;BME280;67888;50.228;7.828;2024-03-02T06:37:26;97880.78;;;5.27;100.00
78590;BME280;67888;50.228;7.828;2024-03-02T06:42:26;97893.28;;;5.35;100.00
78590;BME280;67888;50.228;7.828;2024-03-02T06:47:27;97900.44;;;5.84;100.00
78590;BME280;67888;50.228;7.828;2024-03-02T06:52:28;97890.47;;;6.01;100.00
78590;BME280;67888;50.228;7.828;2024-03-02T06:57:28;97879.69;;;6.18;100.00
78590;BME280;67888;50.228;7.828;2024-03-02T07:02:28;97897.25;;;6.46;100.00
78590;BME280;67888;50.228;7.828;2024-03-02T07:07:29;97898.88;;;6.81;100.00
78590;BME280;67888;50.228;7.828;2024-03-02T07:12:29;97892.47;;;7.50;100.00
78590;BME280;67888;50.228;7.828;2024-03-02T07:17:30;97908.78;;;7.66;100.00
78590;BME280;67888;50.228;7.828;2024-03-02T07:22:31;97910.00;;;7.50;100.00
78590;BME280;67888;50.228;7.828;2024-03-02T07:27:32;97908.91;;;7.56;100.00
78590;BME280;67888;50.228;7.828;2024-03-02T07:32:32;97905.53;;;7.50;100.00
78590;BME280;67888;50.228;7.828;2024-03-02T07:37:33;97917.31;;;8.19;100.00
78590;BME280;67888;50.228;7.828;2024-03-02T07:42:33;97910.34;;;8.52;100.00
78590;BME280;67888;50.228;7.828;2024-03-02T07:47:34;97910.06;;;8.73;100.00
78590;BME280;67888;50.228;7.828;2024-03-02T07:52:35;97912.38;;;8.74;100.00
78590;BME280;67888;50.228;7.828;2024-03-02T07:57:38;97927.19;;;8.84;100.00
78590;BME280;67888;50.228;7.828;2024-03-02T08:02:40;97928.69;;;8.71;100.00
78590;BME280;67888;50.228;7.828;2024-03-02T08:07:41;97931.22;;;8.76;100.00
78590;BME280;67888;50.228;7.828;2024-03-02T08:12:41;97932.50;;;8.79;100.00
78590;BME280;67888;50.228;7.828;2024-03-02T08:17:42;97935.50;;;9.05;100.00
78590;BME280;67888;50.228;7.828;2024-03-02T08:22:48;97927.41;;;9.20;100.00
78590;BME280;67888;50.228;7.828;2024-03-02T08:27:49;97927.72;;;9.32;100.00
78590;BME280;67888;50.228;7.828;2024-03-02T08:32:49;97934.94;;;9.54;100.00
78590;BME280;67888;50.228;7.828;2024-03-02T08:37:50;97928.53;;;9.74;100.00
78590;BME280;67888;50.228;7.828;2024-03-02T08:42:50;97930.47;;;9.95;100.00
78590;BME280;67888;50.228;7.828;2024-03-02T08:47:51;97936.88;;;9.76;100.00
78590;BME280;67888;50.228;7.828;2024-03-02T08:52:51;97943.31;;;10.11;100.00
78590;BME280;67888;50.228;7.828;2024-03-02T08:57:52;97935.16;;;10.12;100.00
78590;BME280;67888;50.228;7.828;2024-03-02T09:02:53;97936.66;;;10.40;100.00
78590;BME280;67888;50.228;7.828;2024-03-02T09:07:53;97943.34;;;10.24;100.00
78590;BME280;67888;50.228;7.828;2024-03-02T09:12:54;97939.19;;;10.46;100.00
78590;BME280;67888;50.228;7.828;2024-03-02T09:17:55;97944.47;;;10.46;100.00
78590;BME280;67888;50.228;7.828;2024-03-02T09:22:55;97924.13;;;10.73;100.00
78590;BME280;67888;50.228;7.828;2024-03-02T09:27:55;97917.47;;;10.98;100.00
78590;BME280;67888;50.228;7.828;2024-03-02T09:32:56;97937.47;;;10.99;100.00
78590;BME280;67888;50.228;7.828;2024-03-02T09:37:57;97925.25;;;11.26;100.00
78590;BME280;67888;50.228;7.828;2024-03-02T09:42:58;97914.69;;;11.26;100.00
78590;BME280;67888;50.228;7.828;2024-03-02T09:47:59;97919.91;;;11.17;100.00
78590;BME280;67888;50.228;7.828;2024-03-02T09:53:00;97929.28;;;11.01;100.00
78590;BME280;67888;50.228;7.828;2024-03-02T09:58:00;97916.16;;;11.09;100.00
78590;BME280;67888;50.228;7.828;2024-03-02T10:03:01;97901.59;;;11.43;100.00
78590;BME280;67888;50.228;7.828;2024-03-02T10:08:02;97899.38;;;11.67;100.00
78590;BME280;67888;50.228;7.828;2024-03-02T10:13:04;97900.72;;;11.96;100.00
78590;BME280;67888;50.228;7.828;2024-03-02T10:18:12;97889.88;;;12.06;100.00
78590;BME280;67888;50.228;7.828;2024-03-02T10:23:14;97887.13;;;12.11;100.00
78590;BME280;67888;50.228;7.828;2024-03-02T10:28:15;97889.91;;;12.14;100.00
78590;BME280;67888;50.228;7.828;2024-03-02T10:33:17;97894.88;;;12.16;100.00
78590;BME280;67888;50.228;7.828;2024-03-02T10:38:17;97910.25;;;12.23;100.00
78590;BME280;67888;50.228;7.828;2024-03-02T10:43:18;97899.84;;;12.43;100.00
78590;BME280;67888;50.228;7.828;2024-03-02T10:48:20;97895.81;;;12.29;100.00
78590;BME280;67888;50.228;7.828;2024-03-02T10:53:21;97887.91;;;12.72;100.00
78590;BME280;67888;50.228;7.828;2024-03-02T10:58:23;97891.19;;;12.51;100.00
78590;BME280;67888;50.228;7.828;2024-03-02T11:03:25;97895.06;;;12.71;100.00
78590;BME280;67888;50.228;7.828;2024-03-02T11:08:27;97896.69;;;13.27;100.00
78590;BME280;67888;50.228;7.828;2024-03-02T11:13:31;97900.13;;;13.19;100.00
78590;BME280;67888;50.228;7.828;2024-03-02T11:18:33;97893.59;;;13.08;100.00
78590;BME280;67888;50.228;7.828;2024-03-02T11:23:35;97888.69;;;13.53;100.00
78590;BME280;67888;50.228;7.828;2024-03-02T11:28:35;97885.72;;;13.55;100.00
78590;BME280;67888;50.228;7.828;2024-03-02T11:33:38;97881.28;;;13.97;100.00
78590;BME280;67888;50.228;7.828;2024-03-02T11:38:39;97871.78;;;14.05;100.00
78590;BME280;67888;50.228;7.828;2024-03-02T11:43:43;97868.38;;;14.46;100.00
78590;BME280;67888;50.228;7.828;2024-03-02T11:48:46;97866.66;;;14.20;100.00
78590;BME280;67888;50.228;7.828;2024-03-02T11:53:47;97864.44;;;14.31;100.00
78590;BME280;67888;50.228;7.828;2024-03-02T11:58:48;97861.78;;;14.85;100.00
78590;BME280;67888;50.228;7.828;2024-03-02T12:03:50;97844.34;;;14.84;100.00
78590;BME280;67888;50.228;7.828;2024-03-02T12:08:53;97838.28;;;15.28;100.00
78590;BME280;67888;50.228;7.828;2024-03-02T12:13:55;97825.47;;;15.30;100.00
78590;BME280;67888;50.228;7.828;2024-03-02T12:18:55;97833.19;;;15.84;100.00
78590;BME280;67888;50.228;7.828;2024-03-02T12:23:57;97822.69;;;15.39;100.00
78590;BME280;67888;50.228;7.828;2024-03-02T12:28:57;97825.00;;;16.01;100.00
78590;BME280;67888;50.228;7.828;2024-03-02T12:33:58;97817.63;;;16.23;98.58
78590;BME280;67888;50.228;7.828;2024-03-02T12:38:59;97825.84;;;16.73;100.00
78590;BME280;67888;50.228;7.828;2024-03-02T12:44:00;97807.88;;;16.67;94.72
78590;BME280;67888;50.228;7.828;2024-03-02T12:49:07;97810.28;;;16.44;90.84
78590;BME280;67888;50.228;7.828;2024-03-02T12:54:10;97813.19;;;16.27;92.54
78590;BME280;67888;50.228;7.828;2024-03-02T12:59:21;97810.44;;;15.95;85.05
78590;BME280;67888;50.228;7.828;2024-03-02T13:04:28;97805.41;;;16.46;86.76
78590;BME280;67888;50.228;7.828;2024-03-02T13:09:29;97794.75;;;17.37;81.29
78590;BME280;67888;50.228;7.828;2024-03-02T13:14:33;97787.22;;;16.76;79.68
78590;BME280;67888;50.228;7.828;2024-03-02T13:19:34;97788.69;;;16.45;77.45
78590;BME280;67888;50.228;7.828;2024-03-02T13:24:34;97788.44;;;16.23;83.62
78590;BME280;67888;50.228;7.828;2024-03-02T13:29:35;97773.44;;;16.15;84.38
78590;BME280;67888;50.228;7.828;2024-03-02T13:34:35;97773.44;;;16.70;81.35
78590;BME280;67888;50.228;7.828;2024-03-02T13:39:37;97774.84;;;15.72;86.08
78590;BME280;67888;50.228;7.828;2024-03-02T13:44:43;97777.78;;;16.07;83.59
78590;BME280;67888;50.228;7.828;2024-03-02T13:49:45;97723.47;;;20.16;62.31
78590;BME280;67888;50.228;7.828;2024-03-02T13:54:47;97775.69;;;19.05;59.04
78590;BME280;67888;50.228;7.828;2024-03-02T13:59:48;97765.66;;;20.33;56.25
78590;BME280;67888;50.228;7.828;2024-03-02T14:04:48;97755.66;;;22.46;49.57
78590;BME280;67888;50.228;7.828;2024-03-02T14:09:50;97755.16;;;20.18;51.52
78590;BME280;67888;50.228;7.828;2024-03-02T14:14:50;97761.53;;;19.01;55.89
78590;BME280;67888;50.228;7.828;2024-03-02T14:19:53;97760.50;;;19.31;54.74
78590;BME280;67888;50.228;7.828;2024-03-02T14:24:54;97753.72;;;17.34;61.91
78590;BME280;67888;50.228;7.828;2024-03-02T14:29:54;97756.53;;;17.10;66.23
78590;BME280;67888;50.228;7.828;2024-03-02T14:34:55;97749.09;;;17.66;61.89
78590;BME280;67888;50.228;7.828;2024-03-02T14:39:55;97759.53;;;21.10;53.60
78590;BME280;67888;50.228;7.828;2024-03-02T14:44:57;97746.56;;;22.90;46.47
78590;BME280;67888;50.228;7.828;2024-03-02T14:49:58;97739.97;;;26.17;39.66
78590;BME280;67888;50.228;7.828;2024-03-02T14:54:58;97732.00;;;20.66;48.55
78590;BME280;67888;50.228;7.828;2024-03-02T14:59:59;97724.25;;;17.78;59.67
78590;BME280;67888;50.228;7.828;2024-03-02T15:04:59;97721.94;;;16.47;66.85
78590;BME280;67888;50.228;7.828;2024-03-02T15:10:00;97708.72;;;15.91;72.13
78590;BME280;67888;50.228;7.828;2024-03-02T15:15:01;97695.91;;;15.93;76.70
78590;BME280;67888;50.228;7.828;2024-03-02T15:20:01;97691.66;;;15.76;76.65
78590;BME280;67888;50.228;7.828;2024-03-02T15:25:03;97681.16;;;15.16;82.03
78590;BME280;67888;50.228;7.828;2024-03-02T15:30:04;97677.94;;;15.22;82.64
78590;BME280;67888;50.228;7.828;2024-03-02T15:35:05;97681.78;;;15.37;83.47
78590;BME280;67888;50.228;7.828;2024-03-02T15:40:08;97670.41;;;15.36;82.87
78590;BME280;67888;50.228;7.828;2024-03-02T15:45:08;97677.09;;;15.06;84.31
78590;BME280;67888;50.228;7.828;2024-03-02T15:50:09;97660.06;;;14.95;86.90
78590;BME280;67888;50.228;7.828;2024-03-02T15:55:10;97666.53;;;15.34;83.45
78590;BME280;67888;50.228;7.828;2024-03-02T16:00:10;97673.31;;;15.19;86.67
78590;BME280;67888;50.228;7.828;2024-03-02T16:05:11;97673.88;;;15.00;90.02
78590;BME280;67888;50.228;7.828;2024-03-02T16:10:13;97672.00;;;14.64;94.47
78590;BME280;67888;50.228;7.828;2024-03-02T16:15:13;97671.78;;;14.24;99.40
78590;BME280;67888;50.228;7.828;2024-03-02T16:20:14;97669.13;;;14.12;100.00
78590;BME280;67888;50.228;7.828;2024-03-02T16:25:15;97660.00;;;14.22;100.00
78590;BME280;67888;50.228;7.828;2024-03-02T16:30:15;97662.41;;;14.15;100.00
78590;BME280;67888;50.228;7.828;2024-03-02T16:35:18;97672.47;;;13.88;100.00
78590;BME280;67888;50.228;7.828;2024-03-02T16:40:18;97670.53;;;13.77;100.00
78590;BME280;67888;50.228;7.828;2024-03-02T16:45:19;97666.22;;;13.72;100.00
78590;BME280;67888;50.228;7.828;2024-03-02T16:50:19;97666.38;;;13.55;100.00
78590;BME280;67888;50.228;7.828;2024-03-02T16:55:22;97659.59;;;13.45;100.00
78590;BME280;67888;50.228;7.828;2024-03-02T17:00:23;97661.97;;;13.38;100.00
78590;BME280;67888;50.228;7.828;2024-03-02T17:05:23;97666.75;;;13.45;100.00
78590;BME280;67888;50.228;7.828;2024-03-02T17:10:25;97677.25;;;13.33;100.00
78590;BME280;67888;50.228;7.828;2024-03-02T17:15:25;97668.75;;;13.27;100.00
78590;BME280;67888;50.228;7.828;2024-03-02T17:20:27;97683.19;;;13.30;100.00
78590;BME280;67888;50.228;7.828;2024-03-02T17:25:29;97681.69;;;13.11;100.00
78590;BME280;67888;50.228;7.828;2024-03-02T17:30:29;97690.78;;;12.93;100.00
78590;BME280;67888;50.228;7.828;2024-03-02T17:35:30;97684.31;;;12.82;100.00
78590;BME280;67888;50.228;7.828;2024-03-02T17:40:31;97681.88;;;12.77;100.00
78590;BME280;67888;50.228;7.828;2024-03-02T17:45:32;97683.13;;;12.71;100.00
78590;BME280;67888;50.228;7.828;2024-03-02T17:50:33;97679.41;;;12.72;100.00
78590;BME280;67888;50.228;7.828;2024-03-02T17:55:33;97677.28;;;12.56;100.00
78590;BME280;67888;50.228;7.828;2024-03-02T18:00:35;97687.56;;;12.49;100.00
78590;BME280;67888;50.228;7.828;2024-03-02T18:05:36;97690.59;;;12.05;100.00
78590;BME280;67888;50.228;7.828;2024-03-02T18:10:37;97686.59;;;11.73;100.00
78590;BME280;67888;50.228;7.828;2024-03-02T18:15:38;97697.59;;;11.49;100.00
78590;BME280;67888;50.228;7.828;2024-03-02T18:20:39;97693.88;;;11.50;100.00
78590;BME280;67888;50.228;7.828;2024-03-02T18:25:39;97693.78;;;11.16;100.00
78590;BME280;67888;50.228;7.828;2024-03-02T18:30:46;97680.50;;;11.21;100.00
78590;BME280;67888;50.228;7.828;2024-03-02T18:35:46;97675.31;;;10.90;100.00
78590;BME280;67888;50.228;7.828;2024-03-02T18:40:47;97687.25;;;10.56;100.00
78590;BME280;67888;50.228;7.828;2024-03-02T18:45:47;97679.56;;;10.60;100.00
78590;BME280;67888;50.228;7.828;2024-03-02T18:50:48;97676.81;;;10.43;100.00
78590;BME280;67888;50.228;7.828;2024-03-02T18:55:48;97674.72;;;10.22;100.00
78590;BME280;67888;50.228;7.828;2024-03-02T19:00:49;97679.59;;;9.93;100.00
78590;BME280;67888;50.228;7.828;2024-03-02T19:05:51;97677.22;;;9.60;100.00
78590;BME280;67888;50.228;7.828;2024-03-02T19:10:51;97671.00;;;9.79;100.00
78590;BME280;67888;50.228;7.828;2024-03-02T19:15:52;97671.84;;;9.29;100.00
78590;BME280;67888;50.228;7.828;2024-03-02T19:20:53;97667.63;;;8.92;100.00
78590;BME280;67888;50.228;7.828;2024-03-02T19:25:54;97668.38;;;8.38;100.00
78590;BME280;67888;50.228;7.828;2024-03-02T19:30:55;97674.13;;;8.81;100.00
78590;BME280;67888;50.228;7.828;2024-03-02T19:35:55;97664.13;;;8.83;100.00
78590;BME280;67888;50.228;7.828;2024-03-02T19:40:56;97660.44;;;8.71;100.00
78590;BME280;67888;50.228;7.828;2024-03-02T19:45:57;97654.13;;;8.58;100.00
78590;BME280;67888;50.228;7.828;2024-03-02T19:50:58;97654.72;;;8.09;100.00
78590;BME280;67888;50.228;7.828;2024-03-02T19:55:58;97652.38;;;8.07;100.00
78590;BME280;67888;50.228;7.828;2024-03-02T20:00:58;97654.63;;;8.46;100.00
78590;BME280;67888;50.228;7.828;2024-03-02T20:05:59;97661.88;;;8.36;100.00
78590;BME280;67888;50.228;7.828;2024-03-02T20:11:02;97655.13;;;8.30;100.00
78590;BME280;67888;50.228;7.828;2024-03-02T20:16:09;97642.28;;;8.14;100.00
78590;BME280;67888;50.228;7.828;2024-03-02T20:21:10;97634.88;;;7.57;100.00
78590;BME280;67888;50.228;7.828;2024-03-02T20:26:10;97616.28;;;8.04;100.00
78590;BME280;67888;50.228;7.828;2024-03-02T20:31:11;97600.28;;;10.13;100.00
78590;BME280;67888;50.228;7.828;2024-03-02T20:36:14;97594.41;;;11.12;100.00
78590;BME280;67888;50.228;7.828;2024-03-02T20:41:16;97595.91;;;11.74;100.00
78590;BME280;67888;50.228;7.828;2024-03-02T20:46:17;97592.34;;;11.87;100.00
78590;BME280;67888;50.228;7.828;2024-03-02T20:51:18;97568.13;;;12.02;100.00
78590;BME280;67888;50.228;7.828;2024-03-02T20:56:18;97556.19;;;11.96;100.00
78590;BME280;67888;50.228;7.828;2024-03-02T21:01:19;97560.44;;;12.18;100.00
78590;BME280;67888;50.228;7.828;2024-03-02T21:06:20;97566.53;;;12.10;100.00
78590;BME280;67888;50.228;7.828;2024-03-02T21:11:21;97570.53;;;12.16;100.00
78590;BME280;67888;50.228;7.828;2024-03-02T21:16:22;97570.72;;;12.11;100.00
78590;BME280;67888;50.228;7.828;2024-03-02T21:21:22;97573.63;;;12.18;100.00
78590;BME280;67888;50.228;7.828;2024-03-02T21:26:23;97571.66;;;12.15;100.00
78590;BME280;67888;50.228;7.828;2024-03-02T21:31:24;97560.31;;;12.14;100.00
78590;BME280;67888;50.228;7.828;2024-03-02T21:36:24;97583.72;;;12.25;100.00
78590;BME280;67888;50.228;7.828;2024-03-02T21:41:25;97595.28;;;12.41;100.00
78590;BME280;67888;50.228;7.828;2024-03-02T21:46:25;97595.09;;;12.46;100.00
78590;BME280;67888;50.228;7.828;2024-03-02T21:51:26;97590.94;;;12.36;100.00
78590;BME280;67888;50.228;7.828;2024-03-02T21:56:27;97586.88;;;12.01;100.00
78590;BME280;67888;50.228;7.828;2024-03-02T22:01:28;97593.72;;;12.02;100.00
78590;BME280;67888;50.228;7.828;2024-03-02T22:06:29;97591.69;;;11.99;100.00
78590;BME280;67888;50.228;7.828;2024-03-02T22:11:29;97592.19;;;11.83;100.00
78590;BME280;67888;50.228;7.828;2024-03-02T22:16:30;97585.03;;;12.01;100.00
78590;BME280;67888;50.228;7.828;2024-03-02T22:21:31;97601.81;;;11.79;100.00
78590;BME280;67888;50.228;7.828;2024-03-02T22:26:31;97612.34;;;11.79;100.00
78590;BME280;67888;50.228;7.828;2024-03-02T22:31:32;97604.75;;;11.61;100.00
78590;BME280;67888;50.228;7.828;2024-03-02T22:36:32;97599.81;;;11.59;100.00
78590;BME280;67888;50.228;7.828;2024-03-02T22:41:33;97612.34;;;11.10;100.00
78590;BME280;67888;50.228;7.828;2024-03-02T22:46:33;97613.63;;;11.39;100.00
78590;BME280;67888;50.228;7.828;2024-03-02T22:51:34;97603.22;;;11.51;100.00
78590;BME280;67888;50.228;7.828;2024-03-02T22:56:34;97594.97;;;10.92;100.00
78590;BME280;67888;50.228;7.828;2024-03-02T23:01:35;97579.78;;;10.72;100.00
78590;BME280;67888;50.228;7.828;2024-03-02T23:06:36;97594.44;;;10.64;100.00
78590;BME280;67888;50.228;7.828;2024-03-02T23:11:36;97598.19;;;10.24;100.00
78590;BME280;67888;50.228;7.828;2024-03-02T23:16:37;97606.19;;;9.88;100.00
78590;BME280;67888;50.228;7.828;2024-03-02T23:21:40;97600.00;;;9.92;100.00
78590;BME280;67888;50.228;7.828;2024-03-02T23:26:40;97608.09;;;9.74;100.00
78590;BME280;67888;50.228;7.828;2024-03-02T23:31:41;97600.38;;;9.10;100.00
78590;BME280;67888;50.228;7.828;2024-03-02T23:36:41;97601.56;;;8.77;100.00
78590;BME280;67888;50.228;7.828;2024-03-02T23:41:42;97600.03;;;8.76;100.00
78590;BME280;67888;50.228;7.828;2024-03-02T23:46:42;97581.00;;;8.84;100.00
78590;BME280;67888;50.228;7.828;2024-03-02T23:51:43;97562.13;;;8.95;100.00
78590;BME280;67888;50.228;7.828;2024-03-02T23:56:44;97543.75;;;8.32;100.00
